createdAt,value
2023-02-21T00:02:40.475Z,37.78
2023-02-21T00:05:25.508Z,41.80
2023-02-21T00:08:10.642Z,36.83
2023-02-21T00:10:55.562Z,36.33
2023-02-21T00:13:40.420Z,34.03
2023-02-21T00:16:25.393Z,34.78
2023-02-21T00:19:10.539Z,35.53
2023-02-21T00:21:55.531Z,35.72
2023-02-21T00:24:40.323Z,33.17
2023-02-21T00:27:25.387Z,35.10
2023-02-21T00:30:10.667Z,33.90
2023-02-21T00:32:56.007Z,31.35
2023-02-21T00:35:41.187Z,35.42
2023-02-21T00:38:26.644Z,37.53
2023-02-21T00:41:12.252Z,39.53
2023-02-21T00:43:57.309Z,34.83
2023-02-21T00:46:43.012Z,46.45
2023-02-21T00:49:28.202Z,34.92
2023-02-21T00:52:13.508Z,35.67
2023-02-21T00:54:58.709Z,39.63
2023-02-21T00:57:44.378Z,37.13
2023-02-21T01:00:35.007Z,39.30
2023-02-21T01:03:19.836Z,37.65
2023-02-21T01:06:05.112Z,37.43
2023-02-21T01:08:50.210Z,34.90
2023-02-21T01:11:36.164Z,37.53
2023-02-21T01:14:22.303Z,36.40
2023-02-21T01:17:13.406Z,38.22
2023-02-21T01:19:59.492Z,44.67
2023-02-21T01:22:44.546Z,40.30
2023-02-21T01:25:29.499Z,40.75
2023-02-21T01:28:17.469Z,38.95
2023-02-21T01:31:02.648Z,38.58
2023-02-21T01:33:52.689Z,41.13
2023-02-21T01:36:38.055Z,40.38
2023-02-21T01:39:23.095Z,39.83
2023-02-21T01:42:08.035Z,38.80
2023-02-21T01:45:00.220Z,38.43
2023-02-21T01:47:45.444Z,40.75
2023-02-21T01:50:37.957Z,37.58
2023-02-21T01:53:25.592Z,39.05
2023-02-21T01:56:10.845Z,37.25
2023-02-21T01:58:57.746Z,36.05
2023-02-21T02:01:48.115Z,38.85
2023-02-21T02:04:34.981Z,40.17
2023-02-21T02:07:20.958Z,44.20
2023-02-21T02:10:08.124Z,40.67
2023-02-21T02:12:34.454Z,39.33
2023-02-21T02:15:11.868Z,37.47
2023-02-21T02:17:41.142Z,301.88
2023-02-21T02:20:25.878Z,124.45
2023-02-21T02:23:07.342Z,83.80
2023-02-21T02:25:53.969Z,61.85
2023-02-21T02:28:23.379Z,34.15
2023-02-21T02:31:06.857Z,38.70
2023-02-21T02:33:55.936Z,35.88
2023-02-21T02:36:45.250Z,36.85
2023-02-21T02:39:20.557Z,38.15
2023-02-21T02:42:10.971Z,37.97
2023-02-21T02:44:40.782Z,37.55
2023-02-21T02:47:09.051Z,41.85
2023-02-21T02:49:38.063Z,37.88
2023-02-21T02:52:05.689Z,39.28
2023-02-21T02:54:32.417Z,38.08
2023-02-21T02:56:59.849Z,40.05
2023-02-21T02:59:29.043Z,41.92
2023-02-21T03:02:09.324Z,38.22
2023-02-21T03:04:52.028Z,36.50
2023-02-21T03:07:40.619Z,39.10
2023-02-21T03:10:12.324Z,37.88
2023-02-21T03:12:45.126Z,37.42
2023-02-21T03:15:31.839Z,41.28
2023-02-21T03:18:07.207Z,39.22
2023-02-21T03:23:05.234Z,32.95
2023-02-21T03:25:33.068Z,34.50
2023-02-21T03:28:02.564Z,35.85
2023-02-21T03:30:36.052Z,38.53
2023-02-21T03:33:02.604Z,37.67
2023-02-21T03:35:30.295Z,36.58
2023-02-21T03:38:00.326Z,37.45
2023-02-21T03:40:31.985Z,39.22
2023-02-21T03:43:01.188Z,42.80
2023-02-21T03:45:31.657Z,39.58
2023-02-21T03:48:13.904Z,39.63
2023-02-21T03:50:42.931Z,40.50
2023-02-21T03:53:10.596Z,41.55
2023-02-21T03:55:38.694Z,38.60
2023-02-21T03:58:11.358Z,39.67
2023-02-21T04:00:38.268Z,42.58
2023-02-21T04:03:04.728Z,38.75
2023-02-21T04:05:34.949Z,42.40
2023-02-21T04:08:01.604Z,42.88
2023-02-21T04:10:28.076Z,41.95
2023-02-21T04:12:55.544Z,39.75
2023-02-21T04:15:22.120Z,38.88
2023-02-21T04:17:48.585Z,39.35
2023-02-21T04:20:15.476Z,38.55
2023-02-21T04:23:01.532Z,39.83
2023-02-21T04:25:29.758Z,40.38
2023-02-21T04:28:01.788Z,38.08
2023-02-21T04:30:28.820Z,41.20
2023-02-21T04:32:55.391Z,41.88
2023-02-21T04:35:21.827Z,42.85
2023-02-21T04:37:48.398Z,40.15
2023-02-21T04:40:14.994Z,39.47
2023-02-21T04:42:41.414Z,41.38
2023-02-21T04:45:08.042Z,38.38
2023-02-21T04:47:36.218Z,36.33
2023-02-21T04:50:03.062Z,36.15
2023-02-21T04:52:29.493Z,40.47
2023-02-21T04:54:55.975Z,39.92
2023-02-21T04:57:22.542Z,38.92
2023-02-21T04:59:49.037Z,42.15
2023-02-21T05:02:15.510Z,40.55
2023-02-21T05:04:43.108Z,45.22
2023-02-21T05:07:09.587Z,44.55
2023-02-21T05:09:35.998Z,45.00
2023-02-21T05:12:02.374Z,42.75
2023-02-21T05:14:28.762Z,48.00
2023-02-21T05:16:55.273Z,44.33
2023-02-21T05:19:27.850Z,46.83
2023-02-21T05:21:55.512Z,49.58
2023-02-21T05:24:21.870Z,46.55
2023-02-21T05:26:48.331Z,45.90
2023-02-21T05:29:15.371Z,47.92
2023-02-21T05:31:41.729Z,52.22
2023-02-21T05:34:08.149Z,51.83
2023-02-21T05:36:34.507Z,49.47
2023-02-21T05:39:00.933Z,53.67
2023-02-21T05:41:27.354Z,52.72
2023-02-21T05:43:53.755Z,46.67
2023-02-21T05:46:20.242Z,47.28
2023-02-21T05:48:46.803Z,47.15
2023-02-21T05:51:13.781Z,49.25
2023-02-21T05:53:40.338Z,53.63
2023-02-21T05:56:07.596Z,47.88
2023-02-21T05:58:35.339Z,49.58
2023-02-21T06:01:01.775Z,49.63
2023-02-21T06:03:28.134Z,52.05
2023-02-21T06:05:54.576Z,52.15
2023-02-21T06:08:20.977Z,54.38
2023-02-21T06:10:48.632Z,51.63
2023-02-21T06:13:15.038Z,59.30
2023-02-21T06:15:41.473Z,61.53
2023-02-21T06:18:08.035Z,55.42
2023-02-21T06:20:34.365Z,53.92
2023-02-21T06:23:00.723Z,54.40
2023-02-21T06:25:27.052Z,50.22
2023-02-21T06:27:53.431Z,55.90
2023-02-21T06:30:22.219Z,55.25
2023-02-21T06:32:49.494Z,56.53
2023-02-21T06:35:15.879Z,56.22
2023-02-21T06:37:42.618Z,55.83
2023-02-21T06:40:09.229Z,58.97
2023-02-21T06:42:37.019Z,56.70
2023-02-21T06:45:03.633Z,61.58
2023-02-21T06:47:29.995Z,56.28
2023-02-21T06:49:56.378Z,64.55
2023-02-21T06:52:22.789Z,61.55
2023-02-21T06:54:52.097Z,64.55
2023-02-21T06:57:18.627Z,55.10
2023-02-21T06:59:44.968Z,59.95
2023-02-21T07:02:15.639Z,60.78
2023-02-21T07:04:42.031Z,60.03
2023-02-21T07:07:08.494Z,63.22
2023-02-21T07:09:34.936Z,67.05
2023-02-21T07:12:03.194Z,68.43
2023-02-21T07:14:29.959Z,64.47
2023-02-21T07:16:56.299Z,62.95
2023-02-21T07:19:22.675Z,54.60
2023-02-21T07:21:49.065Z,57.65
2023-02-21T07:24:15.454Z,54.75
2023-02-21T07:26:41.925Z,52.92
2023-02-21T07:29:09.565Z,61.38
2023-02-21T07:31:38.373Z,61.63
2023-02-21T07:34:04.788Z,58.78
2023-02-21T07:36:34.022Z,59.22
2023-02-21T07:39:24.164Z,53.95
2023-02-21T07:41:50.651Z,57.38
2023-02-21T07:44:29.002Z,64.07
2023-02-21T07:46:58.626Z,56.25
2023-02-21T07:49:25.019Z,54.00
2023-02-21T07:51:54.465Z,55.08
2023-02-21T07:54:23.930Z,60.65
2023-02-21T07:56:52.823Z,55.33
2023-02-21T07:59:33.205Z,71.93
2023-02-21T08:01:59.663Z,57.55
2023-02-21T08:04:29.171Z,50.63
2023-02-21T08:07:05.188Z,50.88
2023-02-21T08:09:34.439Z,49.30
2023-02-21T08:12:03.778Z,50.03
2023-02-21T08:14:39.046Z,42.88
2023-02-21T08:17:07.511Z,44.97
2023-02-21T08:19:34.248Z,50.03
2023-02-21T08:22:03.520Z,50.05
2023-02-21T08:24:32.967Z,44.55
2023-02-21T08:27:01.862Z,40.00
2023-02-21T08:29:31.557Z,40.53
2023-02-21T08:31:59.813Z,41.85
2023-02-21T08:34:29.392Z,40.13
2023-02-21T08:36:58.123Z,41.63
2023-02-21T08:39:24.612Z,37.92
2023-02-21T08:41:54.182Z,41.10
2023-02-21T08:44:22.732Z,37.92
2023-02-21T08:46:58.821Z,41.35
2023-02-21T08:49:28.442Z,35.30
2023-02-21T08:52:02.678Z,37.30
2023-02-21T08:54:42.999Z,36.28
2023-02-21T08:57:09.781Z,37.85
2023-02-21T08:59:42.541Z,35.85
2023-02-21T09:02:19.338Z,35.97
2023-02-21T09:04:49.133Z,29.77
2023-02-21T09:07:23.590Z,35.03
2023-02-21T09:09:54.215Z,31.17
2023-02-21T09:12:27.723Z,33.42
2023-02-21T09:14:54.856Z,31.77
2023-02-21T09:17:24.210Z,36.35
2023-02-21T09:19:52.598Z,31.83
2023-02-21T09:22:19.030Z,35.58
2023-02-21T09:24:53.627Z,31.88
2023-02-21T09:27:20.120Z,28.15
2023-02-21T09:29:50.486Z,27.02
2023-02-21T09:32:20.083Z,26.58
2023-02-21T09:34:49.088Z,31.92
2023-02-21T09:37:19.611Z,27.45
2023-02-21T09:39:46.121Z,26.23
2023-02-21T09:42:18.707Z,29.23
2023-02-21T09:44:48.338Z,29.40
2023-02-21T09:47:24.149Z,33.20
2023-02-21T09:49:54.187Z,30.90
2023-02-21T09:52:30.724Z,28.25
2023-02-21T09:55:03.378Z,31.60
2023-02-21T09:57:32.448Z,31.23
2023-02-21T09:59:59.936Z,30.55
2023-02-21T10:02:35.855Z,29.80
2023-02-21T10:05:17.515Z,29.52
2023-02-21T10:08:00.327Z,28.75
2023-02-21T10:10:44.549Z,32.70
2023-02-21T10:13:32.108Z,32.15
2023-02-21T10:16:05.084Z,33.60
2023-02-21T10:18:40.696Z,35.55
2023-02-21T10:21:17.787Z,32.17
2023-02-21T10:23:46.760Z,35.63
2023-02-21T10:26:19.983Z,30.40
2023-02-21T10:28:48.894Z,37.28
2023-02-21T10:31:30.327Z,31.98
2023-02-21T10:33:59.089Z,31.92
2023-02-21T10:36:28.072Z,30.30
2023-02-21T10:39:10.290Z,32.08
2023-02-21T10:41:39.239Z,30.20
2023-02-21T10:44:33.340Z,30.30
2023-02-21T10:47:32.152Z,31.83
2023-02-21T10:50:06.861Z,27.42
2023-02-21T10:52:37.237Z,27.10
2023-02-21T10:55:26.548Z,28.23
2023-02-21T10:57:59.310Z,23.67
2023-02-21T11:00:41.596Z,28.20
2023-02-21T11:03:16.698Z,25.23
2023-02-21T11:05:48.470Z,23.55
2023-02-21T11:08:14.844Z,23.70
2023-02-21T11:10:46.405Z,22.33
2023-02-21T11:13:18.537Z,23.30
2023-02-21T11:15:48.085Z,30.58
2023-02-21T11:18:17.842Z,26.60
2023-02-21T11:20:47.124Z,24.30
2023-02-21T11:23:27.722Z,22.27
2023-02-21T11:26:14.658Z,22.25
2023-02-21T11:28:44.795Z,19.25
2023-02-21T11:31:21.700Z,21.83
2023-02-21T11:33:58.374Z,23.08
2023-02-21T11:36:30.026Z,23.30
2023-02-21T11:39:04.444Z,20.17
2023-02-21T11:41:47.987Z,17.93
2023-02-21T11:44:26.679Z,19.48
2023-02-21T11:46:58.034Z,20.40
2023-02-21T11:49:29.513Z,21.92
2023-02-21T11:51:59.024Z,20.88
2023-02-21T11:54:32.922Z,19.63
2023-02-21T11:57:00.120Z,21.27
2023-02-21T11:59:44.849Z,16.25
2023-02-21T12:02:16.781Z,17.73
2023-02-21T12:04:55.232Z,17.58
2023-02-21T12:07:30.039Z,18.70
2023-02-21T12:10:09.550Z,15.25
2023-02-21T12:12:47.477Z,15.45
2023-02-21T12:15:21.967Z,15.65
2023-02-21T12:18:03.232Z,15.35
2023-02-21T12:20:52.093Z,16.98
2023-02-21T12:23:41.352Z,14.25
2023-02-21T12:26:10.698Z,14.77
2023-02-21T12:28:48.223Z,13.48
2023-02-21T12:31:17.248Z,14.65
2023-02-21T12:33:50.069Z,14.00
2023-02-21T12:36:37.543Z,16.73
2023-02-21T12:39:29.897Z,12.82
2023-02-21T12:42:10.369Z,15.43
2023-02-21T12:44:39.929Z,15.05
2023-02-21T12:47:13.169Z,14.90
2023-02-21T12:49:47.510Z,15.90
2023-02-21T12:52:21.558Z,16.38
2023-02-21T12:55:09.727Z,15.75
2023-02-21T12:57:44.027Z,18.67
2023-02-21T13:00:22.234Z,18.70
2023-02-21T13:02:57.511Z,17.55
2023-02-21T13:05:27.934Z,16.85
2023-02-21T13:08:09.854Z,15.10
2023-02-21T13:10:51.377Z,129.63
2023-02-21T13:13:23.602Z,142.75
2023-02-21T13:15:56.837Z,355.45
2023-02-21T13:18:34.160Z,42.20
2023-02-21T13:21:16.306Z,23.60
2023-02-21T13:24:06.822Z,18.50
2023-02-21T13:26:51.919Z,15.77
2023-02-21T13:29:22.687Z,17.77
2023-02-21T13:31:54.765Z,16.40
2023-02-21T13:34:24.261Z,16.58
2023-02-21T13:36:53.210Z,17.70
2023-02-21T13:39:31.926Z,17.88
2023-02-21T13:42:19.189Z,14.65
2023-02-21T13:44:47.316Z,20.13
2023-02-21T13:47:19.997Z,18.77
2023-02-21T13:49:55.330Z,18.73
2023-02-21T13:52:31.158Z,19.35
2023-02-21T13:55:15.817Z,19.25
2023-02-21T13:57:51.728Z,19.15
2023-02-21T14:00:29.406Z,19.08
2023-02-21T14:03:15.673Z,22.15
2023-02-21T14:05:49.832Z,18.77
2023-02-21T14:08:31.393Z,20.20
2023-02-21T14:11:16.457Z,20.52
2023-02-21T14:13:54.840Z,18.23
2023-02-21T14:16:40.339Z,18.63
2023-02-21T14:19:21.282Z,18.73
2023-02-21T14:22:23.359Z,18.90
2023-02-21T14:25:06.065Z,21.77
2023-02-21T14:27:36.906Z,19.85
2023-02-21T14:30:06.080Z,18.15
2023-02-21T14:32:42.089Z,20.10
2023-02-21T14:35:26.897Z,18.45
2023-02-21T14:37:59.623Z,18.40
2023-02-21T14:40:50.111Z,17.65
2023-02-21T14:43:28.204Z,18.45
2023-02-21T14:46:20.547Z,20.95
2023-02-21T14:49:05.295Z,25.17
2023-02-21T14:51:40.975Z,17.88
2023-02-21T14:54:22.043Z,20.05
2023-02-21T14:56:59.077Z,21.17
2023-02-21T14:59:25.567Z,19.75
2023-02-21T15:02:21.046Z,20.38
2023-02-21T15:05:15.566Z,24.52
2023-02-21T15:07:48.035Z,21.45
2023-02-21T15:10:18.518Z,22.55
2023-02-21T15:12:48.708Z,20.52
2023-02-21T15:15:17.576Z,20.30
2023-02-21T15:17:47.600Z,19.10
2023-02-21T15:20:18.554Z,23.67
2023-02-21T15:22:56.457Z,19.55
2023-02-21T15:25:30.933Z,20.83
2023-02-21T15:27:58.216Z,21.90
2023-02-21T15:30:30.706Z,22.85
2023-02-21T15:33:23.416Z,23.08
2023-02-21T15:35:50.772Z,20.48
2023-02-21T15:38:23.213Z,23.83
2023-02-21T15:40:53.459Z,21.90
2023-02-21T15:43:27.671Z,22.20
2023-02-21T15:45:57.652Z,26.73
2023-02-21T15:48:30.435Z,23.27
2023-02-21T15:50:59.875Z,23.42
2023-02-21T15:53:28.931Z,20.95
2023-02-21T15:56:15.475Z,22.20
2023-02-21T15:58:41.837Z,20.65
2023-02-21T16:01:10.125Z,19.70
2023-02-21T16:03:40.853Z,20.35
2023-02-21T16:06:21.663Z,24.30
2023-02-21T16:09:01.937Z,23.23
2023-02-21T16:11:50.457Z,21.35
2023-02-21T16:14:29.091Z,21.80
2023-02-21T16:17:16.018Z,22.55
2023-02-21T16:19:43.630Z,18.15
2023-02-21T16:22:22.338Z,18.08
2023-02-21T16:24:48.839Z,22.85
2023-02-21T16:27:18.499Z,19.55
2023-02-21T16:29:44.836Z,21.48
2023-02-21T16:32:20.859Z,22.65
2023-02-21T16:35:00.312Z,20.85
2023-02-21T16:37:29.461Z,22.35
2023-02-21T16:40:01.284Z,19.58
2023-02-21T16:42:27.658Z,21.52
2023-02-21T16:44:54.323Z,22.60
2023-02-21T16:47:24.574Z,23.13
2023-02-21T16:49:54.394Z,22.15
2023-02-21T16:52:29.039Z,24.58
2023-02-21T16:55:01.571Z,20.90
2023-02-21T16:57:27.964Z,24.77
2023-02-21T16:59:56.866Z,25.10
2023-02-21T17:02:26.290Z,34.38
2023-02-21T17:04:52.742Z,29.10
2023-02-21T17:07:27.688Z,40.80
2023-02-21T17:10:01.356Z,34.33
2023-02-21T17:12:30.772Z,35.83
2023-02-21T17:15:00.048Z,34.47
2023-02-21T17:17:28.571Z,34.65
2023-02-21T17:19:57.959Z,32.63
2023-02-21T17:22:24.332Z,30.98
2023-02-21T17:24:53.858Z,30.17
2023-02-21T17:27:23.528Z,30.85
2023-02-21T17:29:52.848Z,24.27
2023-02-21T17:32:19.792Z,25.98
2023-02-21T17:34:50.893Z,25.33
2023-02-21T17:37:20.314Z,25.65
2023-02-21T17:39:46.881Z,25.20
2023-02-21T17:42:13.581Z,24.10
2023-02-21T17:44:43.160Z,22.58
2023-02-21T17:47:21.249Z,22.02
2023-02-21T17:49:51.265Z,23.65
2023-02-21T17:52:20.626Z,25.95
2023-02-21T17:54:49.356Z,28.42
2023-02-21T17:57:18.689Z,28.50
2023-02-21T17:59:47.734Z,26.17
2023-02-21T18:02:15.078Z,30.27
2023-02-21T18:04:41.646Z,29.63
2023-02-21T18:07:13.864Z,31.90
2023-02-21T18:09:47.723Z,39.10
2023-02-21T18:12:18.585Z,33.55
2023-02-21T18:14:46.297Z,36.78
2023-02-21T18:17:17.415Z,44.72
2023-02-21T18:19:43.840Z,42.38
2023-02-21T18:22:29.788Z,49.80
2023-02-21T18:24:59.359Z,45.25
2023-02-21T18:27:34.263Z,42.70
2023-02-21T18:30:06.750Z,41.75
2023-02-21T18:32:36.258Z,41.25
2023-02-21T18:35:08.866Z,43.47
2023-02-21T18:40:19.266Z,137.85
2023-02-21T18:42:48.122Z,114.53
2023-02-21T18:45:17.472Z,118.57
2023-02-21T18:50:29.605Z,95.03
2023-02-21T18:53:05.148Z,81.60
2023-02-21T18:58:01.090Z,41.60
2023-02-21T19:00:30.671Z,53.35
2023-02-21T19:02:57.225Z,40.95
2023-02-21T19:05:26.004Z,45.17
2023-02-21T19:07:55.178Z,48.45
2023-02-21T19:10:22.829Z,46.72
2023-02-21T19:12:49.539Z,48.40
2023-02-21T19:15:16.491Z,57.78
2023-02-21T19:17:47.759Z,62.22
2023-02-21T19:20:15.477Z,63.88
2023-02-21T19:22:42.381Z,70.57
2023-02-21T19:25:08.750Z,60.00
2023-02-21T19:27:35.089Z,61.03
2023-02-21T19:30:01.453Z,62.90
2023-02-21T19:32:28.527Z,58.92
2023-02-21T19:34:54.888Z,57.60
2023-02-21T19:37:21.375Z,56.30
2023-02-21T19:39:47.787Z,57.03
2023-02-21T19:42:14.180Z,57.60
2023-02-21T19:44:40.617Z,63.15
2023-02-21T19:47:06.978Z,66.93
2023-02-21T19:49:33.343Z,66.68
2023-02-21T19:52:00.902Z,78.70
2023-02-21T19:54:30.795Z,66.07
2023-02-21T19:56:58.138Z,71.78
2023-02-21T19:59:27.364Z,68.60
2023-02-21T20:01:55.545Z,66.40
2023-02-21T20:04:22.694Z,59.17
2023-02-21T20:06:51.644Z,57.38
2023-02-21T20:09:23.940Z,57.65
2023-02-21T20:11:53.293Z,59.55
2023-02-21T20:14:19.691Z,59.97
2023-02-21T20:16:46.667Z,57.70
2023-02-21T20:19:15.904Z,57.72
2023-02-21T20:21:45.032Z,61.13
2023-02-21T20:24:14.261Z,59.67
2023-02-21T20:26:43.404Z,57.70
2023-02-21T20:29:09.965Z,63.38
2023-02-21T20:31:41.397Z,59.40
2023-02-21T20:34:18.659Z,62.15
2023-02-21T20:36:50.702Z,60.42
2023-02-21T20:39:25.344Z,60.03
2023-02-21T20:41:53.408Z,58.67
2023-02-21T20:44:20.040Z,59.05
2023-02-21T20:46:59.214Z,63.55
2023-02-21T20:49:29.395Z,65.38
2023-02-21T20:51:56.013Z,62.63
2023-02-21T20:54:22.843Z,62.53
2023-02-21T20:56:50.474Z,63.53
2023-02-21T20:59:24.471Z,70.72
2023-02-21T21:01:51.048Z,71.35
2023-02-21T21:04:18.878Z,64.47
2023-02-21T21:06:46.583Z,67.40
2023-02-21T21:09:23.572Z,67.75
2023-02-21T21:11:50.276Z,66.40
2023-02-21T21:14:20.241Z,70.38
2023-02-21T21:16:57.353Z,68.05
2023-02-21T21:19:28.099Z,66.30
2023-02-21T21:21:54.698Z,72.90
2023-02-21T21:24:21.193Z,74.47
2023-02-21T21:26:58.591Z,70.25
2023-02-21T21:29:25.250Z,69.35
2023-02-21T21:31:53.460Z,75.18
2023-02-21T21:34:23.004Z,75.25
2023-02-21T21:36:55.459Z,77.28
2023-02-21T21:39:23.327Z,80.07
2023-02-21T21:41:53.668Z,81.45
2023-02-21T21:44:20.894Z,79.20
2023-02-21T21:46:51.422Z,78.63
2023-02-21T21:49:20.769Z,81.38
2023-02-21T21:51:52.000Z,78.25
2023-02-21T21:54:21.726Z,73.60
2023-02-21T21:56:53.625Z,68.07
2023-02-21T21:59:24.210Z,64.68
2023-02-21T22:01:53.924Z,66.80
2023-02-21T22:04:21.106Z,66.25
2023-02-21T22:06:47.530Z,64.00
2023-02-21T22:09:22.499Z,56.33
2023-02-21T22:11:51.244Z,57.28
2023-02-21T22:14:20.149Z,61.10
2023-02-21T22:16:48.006Z,58.53
2023-02-21T22:19:15.020Z,56.90
2023-02-21T22:21:43.214Z,50.22
2023-02-21T22:24:10.080Z,52.70
2023-02-21T22:26:39.705Z,51.80
2023-02-21T22:29:07.010Z,50.63
2023-02-21T22:31:33.554Z,53.45
2023-02-21T22:34:02.097Z,49.60
2023-02-21T22:36:29.419Z,55.00
2023-02-21T22:38:55.788Z,55.25
2023-02-21T22:41:26.642Z,49.72
2023-02-21T22:43:54.008Z,49.47
2023-02-21T22:46:22.092Z,47.92
2023-02-21T22:48:48.483Z,49.83
2023-02-21T22:51:16.120Z,50.75
2023-02-21T22:53:43.497Z,50.72
2023-02-21T22:56:12.990Z,51.45
2023-02-21T22:58:39.627Z,59.63
2023-02-21T23:01:08.362Z,51.45
2023-02-21T23:03:35.147Z,49.78
2023-02-21T23:06:02.197Z,49.95
2023-02-21T23:08:29.588Z,52.90
2023-02-21T23:10:56.182Z,49.97
2023-02-21T23:13:23.859Z,47.40
2023-02-21T23:15:51.058Z,53.92
2023-02-21T23:18:20.469Z,49.58
2023-02-21T23:20:47.926Z,49.05
2023-02-21T23:23:14.441Z,50.63
2023-02-21T23:25:41.184Z,50.28
2023-02-21T23:28:08.778Z,50.53
2023-02-21T23:30:40.209Z,49.47
2023-02-21T23:33:14.670Z,51.63
2023-02-21T23:35:44.687Z,53.72
2023-02-21T23:38:15.361Z,54.20
2023-02-21T23:40:46.555Z,50.20
2023-02-21T23:43:14.015Z,49.42
2023-02-21T23:45:40.889Z,52.80
2023-02-21T23:48:08.652Z,51.97
2023-02-21T23:50:36.249Z,54.35
2023-02-21T23:53:02.920Z,56.45
2023-02-21T23:55:29.964Z,53.92
2023-02-21T23:58:00.110Z,50.35
